Pagrindinis puslapis
METAR-TAF:

METAR-TAF

Oro uostai :

Ankoridžas, Aliaska, Jungtinės Amerikos Valstijos

platuma: 61-10-28N, ilguma: 149-59-46W, Aukštis: 44 m

Dabartinis oras

Ataskaita buvo paskelbta 34 minutes, ne 12:53 UTC
Ramus vėjas
Temperatūra -13°C
Drėgmė 92%
Slėgis 1007 hPa
Matomumas: 16.1 km
Giedras dangus

METAR: PANC 281253Z 00000KT 10SM CLR M13/M14 A2975 RMK AO2 SLP079 I1000 T11281139 $

Laikas: 04:27 (13:27 UTC)

Prognozė

Ataskaita buvo paskelbta 1 valandą ir 55 minutes, ne 11:32 UTC
Prognozė galioja nuo 28 metu 12 UTC su 29 metu 18 UTC
Vėjas 4 kt nuo kintamojo kryptimis
Matomumas: 10 km
Giedras dangus

TAF: PANC 281132Z 2812/2918 VRB04KT P6SM SKC

Orai ataskaitas ir orų prognozės (METAR, TAF).

turimą stotys yra geltonos ir raudonos taškus žemėlapyje.

Perkelti pele per norėdami pamatyti stoties vardą.

Tada spustelėkite, norėdami matyti oro stebėjimo ir prognozės.

Norėdami pakeisti žemėlapį: spustelėkite ant žalios mygtukų su juodo kryžiaus žemyn,; žalią mygtuką su brūkšneliu, jei norite nutolinti; arba žalių rodyklių gretimoms žemėlapius.


METAR-TAF: